sensor_id;sensor_type;location;lat;lon;timestamp;temperature;humidity
13482;DHT22;6813;60.352;15.746;2023-09-07T00:00:15;13.30;99.90
13482;DHT22;6813;60.352;15.746;2023-09-07T00:02:40;13.20;99.90
13482;DHT22;6813;60.352;15.746;2023-09-07T00:05:07;13.20;99.90
13482;DHT22;6813;60.352;15.746;2023-09-07T00:07:33;13.20;99.90
13482;DHT22;6813;60.352;15.746;2023-09-07T00:09:59;13.20;99.90
13482;DHT22;6813;60.352;15.746;2023-09-07T00:12:25;13.20;99.90
13482;DHT22;6813;60.352;15.746;2023-09-07T00:14:53;13.10;99.90
13482;DHT22;6813;60.352;15.746;2023-09-07T00:17:19;13.00;99.90
13482;DHT22;6813;60.352;15.746;2023-09-07T00:19:45;12.90;99.90
13482;DHT22;6813;60.352;15.746;2023-09-07T00:22:14;12.80;99.90
13482;DHT22;6813;60.352;15.746;2023-09-07T00:24:39;12.90;99.90
13482;DHT22;6813;60.352;15.746;2023-09-07T00:27:05;12.90;99.90
13482;DHT22;6813;60.352;15.746;2023-09-07T00:29:34;13.00;99.90
13482;DHT22;6813;60.352;15.746;2023-09-07T00:32:00;13.00;99.90
13482;DHT22;6813;60.352;15.746;2023-09-07T00:34:25;13.00;99.90
13482;DHT22;6813;60.352;15.746;2023-09-07T00:36:51;13.00;99.90
13482;DHT22;6813;60.352;15.746;2023-09-07T00:39:16;13.00;99.90
13482;DHT22;6813;60.352;15.746;2023-09-07T00:41:42;13.00;99.90
13482;DHT22;6813;60.352;15.746;2023-09-07T00:44:08;13.00;99.90
13482;DHT22;6813;60.352;15.746;2023-09-07T00:46:33;13.00;99.90
13482;DHT22;6813;60.352;15.746;2023-09-07T00:48:59;13.00;99.90
13482;DHT22;6813;60.352;15.746;2023-09-07T00:51:26;13.00;99.90
13482;DHT22;6813;60.352;15.746;2023-09-07T00:53:52;12.90;99.90
13482;DHT22;6813;60.352;15.746;2023-09-07T00:56:18;12.80;99.90
13482;DHT22;6813;60.352;15.746;2023-09-07T00:58:44;12.70;99.90
13482;DHT22;6813;60.352;15.746;2023-09-07T01:01:10;12.70;99.90
13482;DHT22;6813;60.352;15.746;2023-09-07T01:03:36;12.80;99.90
13482;DHT22;6813;60.352;15.746;2023-09-07T01:08:36;12.70;99.90
13482;DHT22;6813;60.352;15.746;2023-09-07T01:11:17;12.70;99.90
13482;DHT22;6813;60.352;15.746;2023-09-07T01:13:46;12.70;99.90
13482;DHT22;6813;60.352;15.746;2023-09-07T01:16:13;12.60;99.90
13482;DHT22;6813;60.352;15.746;2023-09-07T01:18:42;12.60;99.90
13482;DHT22;6813;60.352;15.746;2023-09-07T01:21:08;12.60;99.90
13482;DHT22;6813;60.352;15.746;2023-09-07T01:23:36;12.60;99.90
13482;DHT22;6813;60.352;15.746;2023-09-07T01:26:03;12.60;99.90
13482;DHT22;6813;60.352;15.746;2023-09-07T01:28:29;12.60;99.90
13482;DHT22;6813;60.352;15.746;2023-09-07T01:30:55;12.60;99.90
13482;DHT22;6813;60.352;15.746;2023-09-07T01:33:22;12.50;99.90
13482;DHT22;6813;60.352;15.746;2023-09-07T01:35:47;12.50;99.90
13482;DHT22;6813;60.352;15.746;2023-09-07T01:38:13;12.50;99.90
13482;DHT22;6813;60.352;15.746;2023-09-07T01:40:38;12.50;99.90
13482;DHT22;6813;60.352;15.746;2023-09-07T01:43:04;12.50;99.90
13482;DHT22;6813;60.352;15.746;2023-09-07T01:45:30;12.40;99.90
13482;DHT22;6813;60.352;15.746;2023-09-07T01:47:58;12.40;99.90
13482;DHT22;6813;60.352;15.746;2023-09-07T01:50:23;12.40;99.90
13482;DHT22;6813;60.352;15.746;2023-09-07T01:52:51;12.30;99.90
13482;DHT22;6813;60.352;15.746;2023-09-07T01:55:16;12.30;99.90
13482;DHT22;6813;60.352;15.746;2023-09-07T01:57:43;12.30;99.90
13482;DHT22;6813;60.352;15.746;2023-09-07T02:00:10;12.20;99.90
13482;DHT22;6813;60.352;15.746;2023-09-07T02:02:35;12.30;99.90
13482;DHT22;6813;60.352;15.746;2023-09-07T02:05:01;12.20;99.90
13482;DHT22;6813;60.352;15.746;2023-09-07T02:07:27;12.20;99.90
13482;DHT22;6813;60.352;15.746;2023-09-07T02:09:53;12.20;99.90
13482;DHT22;6813;60.352;15.746;2023-09-07T02:12:18;12.20;99.90
13482;DHT22;6813;60.352;15.746;2023-09-07T02:14:44;12.20;99.90
13482;DHT22;6813;60.352;15.746;2023-09-07T02:17:10;12.30;99.90
13482;DHT22;6813;60.352;15.746;2023-09-07T02:19:39;12.30;99.90
13482;DHT22;6813;60.352;15.746;2023-09-07T02:22:05;12.30;99.90
13482;DHT22;6813;60.352;15.746;2023-09-07T02:24:31;12.30;99.90
13482;DHT22;6813;60.352;15.746;2023-09-07T02:26:56;12.30;99.90
13482;DHT22;6813;60.352;15.746;2023-09-07T02:29:22;12.30;99.90
13482;DHT22;6813;60.352;15.746;2023-09-07T02:31:47;12.40;99.90
13482;DHT22;6813;60.352;15.746;2023-09-07T02:34:13;12.30;99.90
13482;DHT22;6813;60.352;15.746;2023-09-07T02:36:39;12.40;99.90
13482;DHT22;6813;60.352;15.746;2023-09-07T02:39:04;12.40;99.90
13482;DHT22;6813;60.352;15.746;2023-09-07T02:41:31;12.40;99.90
13482;DHT22;6813;60.352;15.746;2023-09-07T02:43:57;12.40;99.90
13482;DHT22;6813;60.352;15.746;2023-09-07T02:46:22;12.40;99.90
13482;DHT22;6813;60.352;15.746;2023-09-07T02:48:48;12.40;99.90
13482;DHT22;6813;60.352;15.746;2023-09-07T02:51:14;12.40;99.90
13482;DHT22;6813;60.352;15.746;2023-09-07T02:53:40;12.40;99.90
13482;DHT22;6813;60.352;15.746;2023-09-07T02:56:05;12.40;99.90
13482;DHT22;6813;60.352;15.746;2023-09-07T02:58:33;12.30;99.90
13482;DHT22;6813;60.352;15.746;2023-09-07T03:00:59;12.20;99.90
13482;DHT22;6813;60.352;15.746;2023-09-07T03:03:24;12.30;99.90
13482;DHT22;6813;60.352;15.746;2023-09-07T03:05:50;12.30;99.90
13482;DHT22;6813;60.352;15.746;2023-09-07T03:08:15;12.30;99.90
13482;DHT22;6813;60.352;15.746;2023-09-07T03:10:42;12.30;99.90
13482;DHT22;6813;60.352;15.746;2023-09-07T03:13:09;12.30;99.90
13482;DHT22;6813;60.352;15.746;2023-09-07T03:15:35;12.30;99.90
13482;DHT22;6813;60.352;15.746;2023-09-07T03:18:01;12.40;99.90
13482;DHT22;6813;60.352;15.746;2023-09-07T03:20:27;12.40;99.90
13482;DHT22;6813;60.352;15.746;2023-09-07T03:22:52;12.40;99.90
13482;DHT22;6813;60.352;15.746;2023-09-07T03:25:18;12.40;99.90
13482;DHT22;6813;60.352;15.746;2023-09-07T03:27:44;12.40;99.90
13482;DHT22;6813;60.352;15.746;2023-09-07T03:30:10;12.50;99.90
13482;DHT22;6813;60.352;15.746;2023-09-07T03:32:36;12.50;99.90
13482;DHT22;6813;60.352;15.746;2023-09-07T03:35:03;12.50;99.90
13482;DHT22;6813;60.352;15.746;2023-09-07T03:37:30;12.50;99.90
13482;DHT22;6813;60.352;15.746;2023-09-07T03:39:56;12.60;99.90
13482;DHT22;6813;60.352;15.746;2023-09-07T03:42:22;12.60;99.90
13482;DHT22;6813;60.352;15.746;2023-09-07T03:44:48;12.60;99.90
13482;DHT22;6813;60.352;15.746;2023-09-07T03:47:14;12.70;99.90
13482;DHT22;6813;60.352;15.746;2023-09-07T03:49:43;12.70;99.90
13482;DHT22;6813;60.352;15.746;2023-09-07T03:52:10;12.70;99.90
13482;DHT22;6813;60.352;15.746;2023-09-07T03:54:37;12.80;99.90
13482;DHT22;6813;60.352;15.746;2023-09-07T03:57:03;12.80;99.90
13482;DHT22;6813;60.352;15.746;2023-09-07T03:59:30;12.80;99.90
13482;DHT22;6813;60.352;15.746;2023-09-07T04:01:55;12.80;99.90
13482;DHT22;6813;60.352;15.746;2023-09-07T04:04:24;12.80;99.90
13482;DHT22;6813;60.352;15.746;2023-09-07T04:06:50;12.90;99.90
13482;DHT22;6813;60.352;15.746;2023-09-07T04:09:15;13.00;99.90
13482;DHT22;6813;60.352;15.746;2023-09-07T04:11:41;13.00;99.90
13482;DHT22;6813;60.352;15.746;2023-09-07T04:14:07;12.90;99.90
13482;DHT22;6813;60.352;15.746;2023-09-07T04:16:33;13.00;99.90
13482;DHT22;6813;60.352;15.746;2023-09-07T04:18:59;13.00;99.90
13482;DHT22;6813;60.352;15.746;2023-09-07T04:21:24;13.10;99.90
13482;DHT22;6813;60.352;15.746;2023-09-07T04:23:50;13.10;99.90
13482;DHT22;6813;60.352;15.746;2023-09-07T04:26:15;13.10;99.90
13482;DHT22;6813;60.352;15.746;2023-09-07T04:28:41;13.10;99.90
13482;DHT22;6813;60.352;15.746;2023-09-07T04:31:07;13.20;99.90
13482;DHT22;6813;60.352;15.746;2023-09-07T04:33:33;13.10;99.90
13482;DHT22;6813;60.352;15.746;2023-09-07T04:36:15;13.10;99.90
13482;DHT22;6813;60.352;15.746;2023-09-07T04:38:41;13.10;99.90
13482;DHT22;6813;60.352;15.746;2023-09-07T04:41:12;13.10;99.90
13482;DHT22;6813;60.352;15.746;2023-09-07T04:43:39;13.10;99.90
13482;DHT22;6813;60.352;15.746;2023-09-07T04:46:11;13.20;99.90
13482;DHT22;6813;60.352;15.746;2023-09-07T04:48:38;13.10;99.90
13482;DHT22;6813;60.352;15.746;2023-09-07T04:51:05;13.20;99.90
13482;DHT22;6813;60.352;15.746;2023-09-07T04:53:36;13.30;99.90
13482;DHT22;6813;60.352;15.746;2023-09-07T04:56:03;13.30;99.90
13482;DHT22;6813;60.352;15.746;2023-09-07T04:58:29;13.30;99.90
13482;DHT22;6813;60.352;15.746;2023-09-07T05:01:00;13.30;99.90
13482;DHT22;6813;60.352;15.746;2023-09-07T05:03:26;13.40;99.90
13482;DHT22;6813;60.352;15.746;2023-09-07T05:05:53;13.40;99.90
13482;DHT22;6813;60.352;15.746;2023-09-07T05:08:22;13.50;99.90
13482;DHT22;6813;60.352;15.746;2023-09-07T05:10:59;13.60;99.90
13482;DHT22;6813;60.352;15.746;2023-09-07T05:13:26;13.60;99.90
13482;DHT22;6813;60.352;15.746;2023-09-07T05:15:53;13.70;99.90
13482;DHT22;6813;60.352;15.746;2023-09-07T05:18:19;13.70;99.90
13482;DHT22;6813;60.352;15.746;2023-09-07T05:20:45;13.80;99.90
13482;DHT22;6813;60.352;15.746;2023-09-07T05:23:15;13.80;99.90
13482;DHT22;6813;60.352;15.746;2023-09-07T05:25:51;13.80;99.90
13482;DHT22;6813;60.352;15.746;2023-09-07T05:28:22;13.80;99.90
13482;DHT22;6813;60.352;15.746;2023-09-07T05:30:48;13.90;99.90
13482;DHT22;6813;60.352;15.746;2023-09-07T05:33:17;13.90;99.90
13482;DHT22;6813;60.352;15.746;2023-09-07T05:35:44;13.90;99.90
13482;DHT22;6813;60.352;15.746;2023-09-07T05:38:11;13.90;99.90
13482;DHT22;6813;60.352;15.746;2023-09-07T05:40:38;14.00;99.90
13482;DHT22;6813;60.352;15.746;2023-09-07T05:43:05;14.10;99.90
13482;DHT22;6813;60.352;15.746;2023-09-07T05:45:33;14.10;99.90
13482;DHT22;6813;60.352;15.746;2023-09-07T05:47:59;14.30;99.90
13482;DHT22;6813;60.352;15.746;2023-09-07T05:50:25;14.30;99.90
13482;DHT22;6813;60.352;15.746;2023-09-07T05:52:55;14.30;99.90
13482;DHT22;6813;60.352;15.746;2023-09-07T05:55:20;14.20;99.90
13482;DHT22;6813;60.352;15.746;2023-09-07T05:57:46;14.20;99.90
13482;DHT22;6813;60.352;15.746;2023-09-07T06:00:13;14.20;99.90
13482;DHT22;6813;60.352;15.746;2023-09-07T06:02:39;14.10;99.90
13482;DHT22;6813;60.352;15.746;2023-09-07T06:05:05;14.30;99.90
13482;DHT22;6813;60.352;15.746;2023-09-07T06:07:30;14.50;99.90
13482;DHT22;6813;60.352;15.746;2023-09-07T06:09:56;14.80;99.90
13482;DHT22;6813;60.352;15.746;2023-09-07T06:12:24;15.10;99.90
13482;DHT22;6813;60.352;15.746;2023-09-07T06:14:50;15.50;99.90
13482;DHT22;6813;60.352;15.746;2023-09-07T06:17:16;16.00;99.90
13482;DHT22;6813;60.352;15.746;2023-09-07T06:19:41;16.30;99.90
13482;DHT22;6813;60.352;15.746;2023-09-07T06:22:08;16.70;99.90
13482;DHT22;6813;60.352;15.746;2023-09-07T06:24:33;17.00;99.90
13482;DHT22;6813;60.352;15.746;2023-09-07T06:26:59;17.30;99.90
13482;DHT22;6813;60.352;15.746;2023-09-07T06:29:25;17.50;99.90
13482;DHT22;6813;60.352;15.746;2023-09-07T06:31:51;17.90;99.90
13482;DHT22;6813;60.352;15.746;2023-09-07T06:34:17;18.20;99.90
13482;DHT22;6813;60.352;15.746;2023-09-07T06:36:43;18.50;99.90
13482;DHT22;6813;60.352;15.746;2023-09-07T06:39:09;18.80;99.90
13482;DHT22;6813;60.352;15.746;2023-09-07T06:41:35;19.10;99.90
13482;DHT22;6813;60.352;15.746;2023-09-07T06:44:00;19.40;99.90
13482;DHT22;6813;60.352;15.746;2023-09-07T06:46:26;19.80;99.90
13482;DHT22;6813;60.352;15.746;2023-09-07T06:48:52;20.10;99.90
13482;DHT22;6813;60.352;15.746;2023-09-07T06:51:18;20.40;99.90
13482;DHT22;6813;60.352;15.746;2023-09-07T06:53:43;20.70;99.90
13482;DHT22;6813;60.352;15.746;2023-09-07T06:56:09;21.00;99.90
13482;DHT22;6813;60.352;15.746;2023-09-07T06:58:35;21.30;99.90
13482;DHT22;6813;60.352;15.746;2023-09-07T07:01:01;21.60;99.90
13482;DHT22;6813;60.352;15.746;2023-09-07T07:03:29;21.90;99.90
13482;DHT22;6813;60.352;15.746;2023-09-07T07:05:55;22.20;99.90
13482;DHT22;6813;60.352;15.746;2023-09-07T07:08:24;22.60;99.90
13482;DHT22;6813;60.352;15.746;2023-09-07T07:10:50;22.80;99.90
13482;DHT22;6813;60.352;15.746;2023-09-07T07:13:15;22.90;99.90
13482;DHT22;6813;60.352;15.746;2023-09-07T07:15:41;22.70;99.90
13482;DHT22;6813;60.352;15.746;2023-09-07T07:18:07;22.20;99.90
13482;DHT22;6813;60.352;15.746;2023-09-07T07:20:40;22.00;99.90
13482;DHT22;6813;60.352;15.746;2023-09-07T07:23:06;21.80;99.90
13482;DHT22;6813;60.352;15.746;2023-09-07T07:25:32;21.80;99.90
13482;DHT22;6813;60.352;15.746;2023-09-07T07:28:03;21.80;99.90
13482;DHT22;6813;60.352;15.746;2023-09-07T07:30:32;21.70;99.90
13482;DHT22;6813;60.352;15.746;2023-09-07T07:32:57;21.70;99.90
13482;DHT22;6813;60.352;15.746;2023-09-07T07:35:23;21.50;99.90
13482;DHT22;6813;60.352;15.746;2023-09-07T07:37:50;21.30;99.90
13482;DHT22;6813;60.352;15.746;2023-09-07T07:40:16;20.90;99.90
13482;DHT22;6813;60.352;15.746;2023-09-07T07:42:43;20.60;99.90
13482;DHT22;6813;60.352;15.746;2023-09-07T07:45:09;20.40;99.90
13482;DHT22;6813;60.352;15.746;2023-09-07T07:47:35;20.30;99.90
13482;DHT22;6813;60.352;15.746;2023-09-07T07:50:01;20.10;99.90
13482;DHT22;6813;60.352;15.746;2023-09-07T07:52:27;19.90;99.90
13482;DHT22;6813;60.352;15.746;2023-09-07T07:54:53;19.50;99.90
13482;DHT22;6813;60.352;15.746;2023-09-07T07:57:19;19.40;99.90
13482;DHT22;6813;60.352;15.746;2023-09-07T07:59:45;19.40;99.90
13482;DHT22;6813;60.352;15.746;2023-09-07T08:02:10;19.20;99.90
13482;DHT22;6813;60.352;15.746;2023-09-07T08:04:36;19.30;99.90
13482;DHT22;6813;60.352;15.746;2023-09-07T08:07:02;19.50;99.90
13482;DHT22;6813;60.352;15.746;2023-09-07T08:09:33;19.80;99.90
13482;DHT22;6813;60.352;15.746;2023-09-07T08:11:59;20.10;99.90
13482;DHT22;6813;60.352;15.746;2023-09-07T08:14:28;20.40;99.90
13482;DHT22;6813;60.352;15.746;2023-09-07T08:16:54;20.70;99.90
13482;DHT22;6813;60.352;15.746;2023-09-07T08:19:20;20.60;99.90
13482;DHT22;6813;60.352;15.746;2023-09-07T08:21:46;20.70;99.90
13482;DHT22;6813;60.352;15.746;2023-09-07T08:24:14;20.60;99.90
13482;DHT22;6813;60.352;15.746;2023-09-07T08:26:40;20.40;99.90
13482;DHT22;6813;60.352;15.746;2023-09-07T08:29:08;20.40;99.90
13482;DHT22;6813;60.352;15.746;2023-09-07T08:31:35;20.20;99.90
13482;DHT22;6813;60.352;15.746;2023-09-07T08:34:01;20.30;99.90
13482;DHT22;6813;60.352;15.746;2023-09-07T08:36:31;20.40;99.90
13482;DHT22;6813;60.352;15.746;2023-09-07T08:39:03;20.40;99.90
13482;DHT22;6813;60.352;15.746;2023-09-07T08:41:51;20.50;99.90
13482;DHT22;6813;60.352;15.746;2023-09-07T08:44:17;20.40;99.90
13482;DHT22;6813;60.352;15.746;2023-09-07T08:46:45;20.50;99.90
13482;DHT22;6813;60.352;15.746;2023-09-07T08:49:11;20.60;99.90
13482;DHT22;6813;60.352;15.746;2023-09-07T08:51:38;20.80;99.90
13482;DHT22;6813;60.352;15.746;2023-09-07T08:54:04;20.80;99.90
13482;DHT22;6813;60.352;15.746;2023-09-07T08:56:31;20.70;99.90
13482;DHT22;6813;60.352;15.746;2023-09-07T08:58:57;20.70;99.90
13482;DHT22;6813;60.352;15.746;2023-09-07T09:01:23;20.60;99.90
13482;DHT22;6813;60.352;15.746;2023-09-07T09:03:52;20.50;99.90
13482;DHT22;6813;60.352;15.746;2023-09-07T09:06:19;20.30;99.90
13482;DHT22;6813;60.352;15.746;2023-09-07T09:08:46;20.10;99.90
13482;DHT22;6813;60.352;15.746;2023-09-07T09:11:15;20.00;99.90
13482;DHT22;6813;60.352;15.746;2023-09-07T09:13:41;20.00;99.90
13482;DHT22;6813;60.352;15.746;2023-09-07T09:16:07;19.90;99.90
13482;DHT22;6813;60.352;15.746;2023-09-07T09:18:33;19.80;99.90
13482;DHT22;6813;60.352;15.746;2023-09-07T09:20:59;19.80;99.90
13482;DHT22;6813;60.352;15.746;2023-09-07T09:23:33;19.90;99.90
13482;DHT22;6813;60.352;15.746;2023-09-07T09:26:00;19.90;99.90
13482;DHT22;6813;60.352;15.746;2023-09-07T09:28:26;19.90;99.90
13482;DHT22;6813;60.352;15.746;2023-09-07T09:30:53;20.00;99.90
13482;DHT22;6813;60.352;15.746;2023-09-07T09:33:22;20.10;99.90
13482;DHT22;6813;60.352;15.746;2023-09-07T09:35:48;20.30;99.90
13482;DHT22;6813;60.352;15.746;2023-09-07T09:38:14;20.10;99.90
13482;DHT22;6813;60.352;15.746;2023-09-07T09:40:40;20.00;99.90
13482;DHT22;6813;60.352;15.746;2023-09-07T09:43:06;20.00;99.90
13482;DHT22;6813;60.352;15.746;2023-09-07T09:45:32;19.90;99.90
13482;DHT22;6813;60.352;15.746;2023-09-07T09:47:58;19.80;99.90
13482;DHT22;6813;60.352;15.746;2023-09-07T09:50:27;19.70;99.90
13482;DHT22;6813;60.352;15.746;2023-09-07T09:52:53;19.60;99.90
13482;DHT22;6813;60.352;15.746;2023-09-07T09:55:19;19.60;99.90
13482;DHT22;6813;60.352;15.746;2023-09-07T09:57:45;19.80;99.90
13482;DHT22;6813;60.352;15.746;2023-09-07T10:00:11;19.90;99.90
13482;DHT22;6813;60.352;15.746;2023-09-07T10:03:04;20.10;99.90
13482;DHT22;6813;60.352;15.746;2023-09-07T10:05:31;20.20;99.90
13482;DHT22;6813;60.352;15.746;2023-09-07T10:08:03;20.30;99.90
13482;DHT22;6813;60.352;15.746;2023-09-07T10:10:36;20.50;99.90
13482;DHT22;6813;60.352;15.746;2023-09-07T10:13:02;20.80;99.90
13482;DHT22;6813;60.352;15.746;2023-09-07T10:15:29;21.00;99.90
13482;DHT22;6813;60.352;15.746;2023-09-07T10:18:11;21.20;99.90
13482;DHT22;6813;60.352;15.746;2023-09-07T10:20:54;21.30;99.90
13482;DHT22;6813;60.352;15.746;2023-09-07T10:23:22;21.40;99.90
13482;DHT22;6813;60.352;15.746;2023-09-07T10:25:53;21.60;99.90
13482;DHT22;6813;60.352;15.746;2023-09-07T10:28:23;21.50;99.90
13482;DHT22;6813;60.352;15.746;2023-09-07T10:31:14;21.50;99.90
13482;DHT22;6813;60.352;15.746;2023-09-07T10:33:40;21.50;99.90
13482;DHT22;6813;60.352;15.746;2023-09-07T10:36:24;21.40;99.90
13482;DHT22;6813;60.352;15.746;2023-09-07T10:38:54;21.50;99.90
13482;DHT22;6813;60.352;15.746;2023-09-07T10:41:20;21.40;99.90
13482;DHT22;6813;60.352;15.746;2023-09-07T10:43:50;21.60;99.90
13482;DHT22;6813;60.352;15.746;2023-09-07T10:46:21;21.80;99.90
13482;DHT22;6813;60.352;15.746;2023-09-07T10:48:51;22.00;99.90
13482;DHT22;6813;60.352;15.746;2023-09-07T10:51:18;22.10;99.90
13482;DHT22;6813;60.352;15.746;2023-09-07T10:53:43;22.30;99.90
13482;DHT22;6813;60.352;15.746;2023-09-07T10:56:09;22.50;99.90
13482;DHT22;6813;60.352;15.746;2023-09-07T10:58:41;22.80;99.90
13482;DHT22;6813;60.352;15.746;2023-09-07T11:01:11;22.90;99.90
13482;DHT22;6813;60.352;15.746;2023-09-07T11:03:37;23.10;99.90
13482;DHT22;6813;60.352;15.746;2023-09-07T11:08:36;23.50;99.90
13482;DHT22;6813;60.352;15.746;2023-09-07T11:11:03;23.50;99.90
13482;DHT22;6813;60.352;15.746;2023-09-07T11:13:29;23.60;99.90
13482;DHT22;6813;60.352;15.746;2023-09-07T11:15:56;23.70;99.90
13482;DHT22;6813;60.352;15.746;2023-09-07T11:18:23;23.60;99.90
13482;DHT22;6813;60.352;15.746;2023-09-07T11:20:52;23.60;99.90
13482;DHT22;6813;60.352;15.746;2023-09-07T11:23:20;23.60;99.90
13482;DHT22;6813;60.352;15.746;2023-09-07T11:25:51;23.60;99.90
13482;DHT22;6813;60.352;15.746;2023-09-07T11:28:18;23.40;99.90
13482;DHT22;6813;60.352;15.746;2023-09-07T11:30:54;23.30;99.90
13482;DHT22;6813;60.352;15.746;2023-09-07T11:33:22;23.30;99.90
13482;DHT22;6813;60.352;15.746;2023-09-07T11:35:48;23.20;99.90
13482;DHT22;6813;60.352;15.746;2023-09-07T11:38:15;23.20;99.90
13482;DHT22;6813;60.352;15.746;2023-09-07T11:40:42;23.10;99.90
13482;DHT22;6813;60.352;15.746;2023-09-07T11:43:11;23.10;99.90
13482;DHT22;6813;60.352;15.746;2023-09-07T11:45:38;23.10;99.90
13482;DHT22;6813;60.352;15.746;2023-09-07T11:48:04;23.10;99.90
13482;DHT22;6813;60.352;15.746;2023-09-07T11:50:30;23.10;99.90
13482;DHT22;6813;60.352;15.746;2023-09-07T11:52:56;23.30;99.90
13482;DHT22;6813;60.352;15.746;2023-09-07T11:55:26;23.30;99.90
13482;DHT22;6813;60.352;15.746;2023-09-07T11:57:52;23.20;99.90
13482;DHT22;6813;60.352;15.746;2023-09-07T12:00:18;23.20;99.90
13482;DHT22;6813;60.352;15.746;2023-09-07T12:02:44;23.20;99.90
13482;DHT22;6813;60.352;15.746;2023-09-07T12:05:10;23.20;99.90
13482;DHT22;6813;60.352;15.746;2023-09-07T12:07:40;23.20;99.90
13482;DHT22;6813;60.352;15.746;2023-09-07T12:10:09;23.20;99.90
13482;DHT22;6813;60.352;15.746;2023-09-07T12:12:39;23.30;99.90
13482;DHT22;6813;60.352;15.746;2023-09-07T12:15:06;23.20;99.90
13482;DHT22;6813;60.352;15.746;2023-09-07T12:17:32;23.10;99.90
13482;DHT22;6813;60.352;15.746;2023-09-07T12:19:58;23.10;99.90
13482;DHT22;6813;60.352;15.746;2023-09-07T12:22:25;23.10;99.90
13482;DHT22;6813;60.352;15.746;2023-09-07T12:24:51;23.10;99.90
13482;DHT22;6813;60.352;15.746;2023-09-07T12:27:16;23.10;99.90
13482;DHT22;6813;60.352;15.746;2023-09-07T12:29:43;23.10;99.90
13482;DHT22;6813;60.352;15.746;2023-09-07T12:32:09;23.10;99.90
13482;DHT22;6813;60.352;15.746;2023-09-07T12:34:35;23.20;99.90
13482;DHT22;6813;60.352;15.746;2023-09-07T12:37:01;23.20;99.90
13482;DHT22;6813;60.352;15.746;2023-09-07T12:39:30;23.00;99.90
13482;DHT22;6813;60.352;15.746;2023-09-07T12:41:58;22.90;99.90
13482;DHT22;6813;60.352;15.746;2023-09-07T12:44:24;22.90;99.90
13482;DHT22;6813;60.352;15.746;2023-09-07T12:46:50;22.90;99.90
13482;DHT22;6813;60.352;15.746;2023-09-07T12:49:15;22.90;99.90
13482;DHT22;6813;60.352;15.746;2023-09-07T12:51:42;22.80;99.90
13482;DHT22;6813;60.352;15.746;2023-09-07T12:54:07;22.80;99.90
13482;DHT22;6813;60.352;15.746;2023-09-07T12:56:34;22.70;99.90
13482;DHT22;6813;60.352;15.746;2023-09-07T12:58:59;22.80;99.90
13482;DHT22;6813;60.352;15.746;2023-09-07T13:01:26;22.90;99.90
13482;DHT22;6813;60.352;15.746;2023-09-07T13:03:52;22.90;99.90
13482;DHT22;6813;60.352;15.746;2023-09-07T13:06:17;22.90;99.90
13482;DHT22;6813;60.352;15.746;2023-09-07T13:08:46;23.00;99.90
13482;DHT22;6813;60.352;15.746;2023-09-07T13:11:12;23.00;99.90
13482;DHT22;6813;60.352;15.746;2023-09-07T13:13:40;23.00;99.90
13482;DHT22;6813;60.352;15.746;2023-09-07T13:16:06;22.90;99.90
13482;DHT22;6813;60.352;15.746;2023-09-07T13:18:31;22.90;99.90
13482;DHT22;6813;60.352;15.746;2023-09-07T13:20:57;22.80;99.90
13482;DHT22;6813;60.352;15.746;2023-09-07T13:23:27;22.90;99.90
13482;DHT22;6813;60.352;15.746;2023-09-07T13:25:57;22.70;99.90
13482;DHT22;6813;60.352;15.746;2023-09-07T13:28:22;22.70;99.90
13482;DHT22;6813;60.352;15.746;2023-09-07T13:30:50;22.70;99.90
13482;DHT22;6813;60.352;15.746;2023-09-07T13:33:16;22.80;99.90
13482;DHT22;6813;60.352;15.746;2023-09-07T13:35:42;22.80;99.90
13482;DHT22;6813;60.352;15.746;2023-09-07T13:38:09;22.80;99.90
13482;DHT22;6813;60.352;15.746;2023-09-07T13:40:35;22.90;99.90
13482;DHT22;6813;60.352;15.746;2023-09-07T13:43:00;22.90;99.90
13482;DHT22;6813;60.352;15.746;2023-09-07T13:45:26;22.90;99.90
13482;DHT22;6813;60.352;15.746;2023-09-07T13:47:53;22.90;99.90
13482;DHT22;6813;60.352;15.746;2023-09-07T13:50:19;22.90;99.90
13482;DHT22;6813;60.352;15.746;2023-09-07T13:52:48;22.80;99.90
13482;DHT22;6813;60.352;15.746;2023-09-07T13:55:14;22.70;99.90
13482;DHT22;6813;60.352;15.746;2023-09-07T13:57:40;22.70;99.90
13482;DHT22;6813;60.352;15.746;2023-09-07T14:00:06;22.70;99.90
13482;DHT22;6813;60.352;15.746;2023-09-07T14:02:32;22.70;99.90
13482;DHT22;6813;60.352;15.746;2023-09-07T14:04:58;22.70;99.90
13482;DHT22;6813;60.352;15.746;2023-09-07T14:07:24;22.70;99.90
13482;DHT22;6813;60.352;15.746;2023-09-07T14:09:54;22.70;99.90
13482;DHT22;6813;60.352;15.746;2023-09-07T14:12:19;22.70;99.90
13482;DHT22;6813;60.352;15.746;2023-09-07T14:14:49;22.70;99.90
13482;DHT22;6813;60.352;15.746;2023-09-07T14:17:15;22.60;99.90
13482;DHT22;6813;60.352;15.746;2023-09-07T14:19:41;22.70;99.90
13482;DHT22;6813;60.352;15.746;2023-09-07T14:22:12;22.60;99.90
13482;DHT22;6813;60.352;15.746;2023-09-07T14:24:38;22.60;99.90
13482;DHT22;6813;60.352;15.746;2023-09-07T14:27:04;22.60;99.90
13482;DHT22;6813;60.352;15.746;2023-09-07T14:29:30;22.60;99.90
13482;DHT22;6813;60.352;15.746;2023-09-07T14:31:56;22.50;99.90
13482;DHT22;6813;60.352;15.746;2023-09-07T14:34:29;22.40;99.90
13482;DHT22;6813;60.352;15.746;2023-09-07T14:36:55;22.20;99.90
13482;DHT22;6813;60.352;15.746;2023-09-07T14:39:21;22.10;99.90
13482;DHT22;6813;60.352;15.746;2023-09-07T14:41:50;22.00;99.90
13482;DHT22;6813;60.352;15.746;2023-09-07T14:44:18;22.00;99.90
13482;DHT22;6813;60.352;15.746;2023-09-07T14:46:44;22.10;99.90
13482;DHT22;6813;60.352;15.746;2023-09-07T14:49:12;22.20;99.90
13482;DHT22;6813;60.352;15.746;2023-09-07T14:51:38;22.20;99.90
13482;DHT22;6813;60.352;15.746;2023-09-07T14:54:06;22.10;99.90
13482;DHT22;6813;60.352;15.746;2023-09-07T14:56:32;22.20;99.90
13482;DHT22;6813;60.352;15.746;2023-09-07T14:59:01;22.30;99.90
13482;DHT22;6813;60.352;15.746;2023-09-07T15:01:26;22.30;99.90
13482;DHT22;6813;60.352;15.746;2023-09-07T15:03:52;22.30;99.90
13482;DHT22;6813;60.352;15.746;2023-09-07T15:06:18;22.40;99.90
13482;DHT22;6813;60.352;15.746;2023-09-07T15:08:45;22.40;99.90
13482;DHT22;6813;60.352;15.746;2023-09-07T15:11:10;22.40;99.90
13482;DHT22;6813;60.352;15.746;2023-09-07T15:13:38;22.40;99.90
13482;DHT22;6813;60.352;15.746;2023-09-07T15:16:05;22.50;99.90
13482;DHT22;6813;60.352;15.746;2023-09-07T15:18:30;22.40;99.90
13482;DHT22;6813;60.352;15.746;2023-09-07T15:20:57;22.40;99.90
13482;DHT22;6813;60.352;15.746;2023-09-07T15:23:23;22.40;99.90
13482;DHT22;6813;60.352;15.746;2023-09-07T15:25:49;22.30;99.90
13482;DHT22;6813;60.352;15.746;2023-09-07T15:28:17;22.30;99.90
13482;DHT22;6813;60.352;15.746;2023-09-07T15:30:42;22.20;99.90
13482;DHT22;6813;60.352;15.746;2023-09-07T15:33:08;22.10;99.90